• Join FlightAware (Why Join?)
  • Login
  • US Flag 
10:10PM EDT


 

Airport Tracker/Info


-or-


 

Live Flight TrackerFlight Track Log ✈ ASH3770 ✈ 10-Apr-2013 ✈ KIAD - KAUS

Flight Track Log - Related Links

Times and Time Zones

All times are in EDT time to prevent confusion due to time zone crossing. See the ASH3770 flight status page for this flight to view local times or setup timezone preferences in your user account.

Time Position Orientation Groundspeed Altitude Reporting Facility
EDT Latitude Longitude Course Direction KTS MPH feet Rate Location/Type
12:56PM 38.8833 -77.4833 218° Southwest 196 226 2,700  Level Potomac TRACON
12:57PM 38.8333 -77.5333 218° Southwest 262 302 4,300 2,040 Climbing Potomac TRACON
12:58PM 38.7833 -77.6000 226° Southwest 262 302 6,800 2,640 Climbing Potomac TRACON
12:59PM 38.7667 -77.6833 256° West 254 292 9,600 2,160 Climbing Potomac TRACON
01:00PM 38.7833 -77.7833 282° West 265 305 11,200 1,620 Climbing Potomac TRACON
01:01PM 38.8061 -77.8881 286° West 287 330 12,900 1,800 Climbing Washington Center
01:02PM 38.8186 -77.9897 279° West 318 366 14,900 1,860 Climbing Washington Center
01:03PM 38.8203 -78.1175 271° West 324 373 16,700 1,620 Climbing Washington Center
01:04PM 38.8222 -78.2214 271° West 329 379 18,200 1,500 Climbing Washington Center
01:05PM 38.8253 -78.3628 272° West 343 395 19,800 1,560 Climbing Washington Center
01:06PM 38.8289 -78.4750 272° West 356 410 21,400 1,320 Climbing Washington Center
01:07PM 38.8358 -78.6111 274° West 369 425 22,500 1,140 Climbing Washington Center
01:08PM 38.8386 -78.7472 272° West 381 438 23,700 1,080 Climbing Washington Center
01:09PM 38.8347 -78.8936 268° West 387 445 24,700 900 Climbing Washington Center
01:10PM 38.8394 -79.0217 273° West 384 442 25,600 960 Climbing Washington Center
01:11PM 38.8453 -79.1847 273° West 401 461 26,700 900 Climbing Washington Center
01:12PM 38.8200 -79.3300 257° West 413 475 27,500 840 Climbing Washington Center
01:13PM 38.7944 -79.4753 257° West 418 481 28,400 1,140 Climbing Washington Center
01:14PM 38.7714 -79.6072 257° West 424 488 29,800 1,200 Climbing Washington Center
01:15PM 38.7458 -79.7467 257° West 424 488 30,900 1,080 Climbing Washington Center
01:16PM 38.7200 -79.8864 257° West 419 482 32,000 960 Climbing Washington Center
01:17PM 38.6894 -80.0389 256° West 414 476 32,900 840 Climbing Washington Center
01:18PM 38.6519 -80.2253 256° West 404 465 34,100 780 Climbing Indianapolis Center
01:19PM 38.6275 -80.3644 257° West 401 461 34,900 420 Climbing Indianapolis Center
01:20PM 38.6008 -80.5039 256° West 403 464 35,000  Climbing Indianapolis Center
01:21PM 38.5725 -80.6492 256° West 417 480 35,000 480 Level Indianapolis Center
01:23PM 38.5453 -80.7933 256° West 417 480 36,000 480 Climbing Indianapolis Center
01:24PM 38.5164 -80.9389 256° West 420 483 36,000  Level Indianapolis Center
01:25PM 38.4872 -81.0878 256° West 427 491 36,000  Level Indianapolis Center
01:26PM 38.4575 -81.2369 256° West 429 494 36,000  Level Indianapolis Center
01:27PM 38.4211 -81.4167 256° West 432 497 36,000  Level Indianapolis Center
01:28PM 38.3919 -81.5669 256° West 432 497 36,000  Level Indianapolis Center
01:29PM 38.3619 -81.7175 256° West 431 496 36,000  Level Indianapolis Center
01:30PM 38.3244 -81.8617 252° West 430 495 36,000  Level Indianapolis Center
01:31PM 38.2842 -82.0072 251° West 434 499 36,000  Level Indianapolis Center
01:32PM 38.2433 -82.1517 250° West 434 499 36,000  Level Indianapolis Center
01:33PM 38.2025 -82.2967 250° West 433 498 36,000  Level Indianapolis Center
01:34PM 38.1617 -82.4428 250° West 436 502 36,000  Level Indianapolis Center
01:35PM 38.1192 -82.5922 250° West 437 503 36,000  Level Indianapolis Center
01:36PM 38.0703 -82.7558 249° West 429 494 36,000  Level Indianapolis Center
01:37PM 38.0297 -82.8983 250° West 429 494 36,000  Level Indianapolis Center
01:38PM 37.9889 -83.0400 250° West 427 491 36,000  Level Indianapolis Center
01:39PM 37.9469 -83.1803 249° West 427 491 36,000  Level Indianapolis Center
01:40PM 37.9067 -83.3200 250° West 424 488 36,000  Level Indianapolis Center
01:41PM 37.8656 -83.4594 250° West 424 488 36,000  Level Indianapolis Center
01:42PM 37.8169 -83.6222 249° West 424 488 36,000  Level Indianapolis Center
01:43PM 37.7753 -83.7608 249° West 423 487 36,000  Level Indianapolis Center
01:44PM 37.7331 -83.8989 249° West 422 486 36,000  Level Indianapolis Center
01:45PM 37.6908 -84.0372 249° West 423 487 36,000  Level Indianapolis Center
01:46PM 37.6483 -84.1769 249° West 426 490 36,000  Level Indianapolis Center
01:47PM 37.6064 -84.3139 249° West 422 486 36,000  Level Indianapolis Center
01:48PM 37.5650 -84.4528 249° West 422 486 36,000  Level Indianapolis Center
01:49PM 37.5144 -84.6131 248° West 421 484 36,000  Level Indianapolis Center
01:50PM 37.4717 -84.7525 249° West 425 489 36,000  Level Indianapolis Center
01:51PM 37.4283 -84.8900 248° West 423 487 36,000  Level Indianapolis Center
01:52PM 37.3853 -85.0272 248° West 420 483 36,000  Level Indianapolis Center
01:53PM 37.3425 -85.1647 249° West 423 487 36,000  Level Indianapolis Center
01:54PM 37.2994 -85.3025 249° West 422 486 36,000  Level Indianapolis Center
01:55PM 37.2472 -85.4619 248° West 421 484 36,000  Level Indianapolis Center
01:56PM 37.2081 -85.5853 248° West 427 491 36,000  Level Indianapolis Center
01:57PM 37.1622 -85.7267 248° West 425 489 36,000  Level Indianapolis Center
01:59PM 37.1117 -85.8839 248° West 423 487 36,000  Level Indianapolis Center
01:59PM 37.0986 -85.9306 251° West 415 478 36,000  Level Memphis Center
02:00PM 37.0536 -86.0681 248° West 415 478 36,000  Level Memphis Center
02:01PM 37.0117 -86.1872 246° West 409 471 36,000  Level Memphis Center
02:02PM 36.9683 -86.3272 249° West 409 471 36,000  Level Memphis Center
02:03PM 36.9206 -86.4592 246° West 422 486 36,000  Level Memphis Center
02:04PM 36.8558 -86.5842 237° Southwest 439 505 36,000  Level Memphis Center
02:05PM 36.7906 -86.7064 236° Southwest 439 505 36,000  Level Memphis Center
02:06PM 36.7256 -86.8311 237° Southwest 439 505 36,000  Level Memphis Center
02:07PM 36.6581 -86.9556 236° Southwest 434 499 36,000  Level Memphis Center
02:08PM 36.5906 -87.0775 235° Southwest 434 499 36,000  Level Memphis Center
02:09PM 36.5250 -87.2014 237° Southwest 434 499 36,000  Level Memphis Center
02:10PM 36.4569 -87.3228 235° Southwest 434 499 36,000  Level Memphis Center
02:11PM 36.3911 -87.4439 236° Southwest 428 493 36,000  Level Memphis Center
02:12PM 36.3231 -87.5647 235° Southwest 428 493 36,000  Level Memphis Center
02:13PM 36.2489 -87.6986 236° Southwest 433 498 36,000 960 Level Memphis Center
02:14PM 36.1844 -87.8111 235° Southwest 427 491 38,000 960 Climbing Memphis Center
02:15PM 36.1242 -87.9236 236° Southwest 406 467 38,000  Level Memphis Center
02:17PM 36.0053 -88.1350 235° Southwest 398 458 38,000  Level Memphis Center
02:18PM 35.9383 -88.2547 235° Southwest 405 466 38,000  Level Memphis Center
02:19PM 35.8656 -88.3872 236° Southwest 415 478 38,000  Level Memphis Center
02:20PM 35.7964 -88.5067 234° Southwest 427 491 38,000  Level Memphis Center
02:21PM 35.7294 -88.6231 235° Southwest 432 497 38,000  Level Memphis Center
02:22PM 35.6622 -88.7394 235° Southwest 432 497 38,000  Level Memphis Center
02:23PM 35.5969 -88.8583 236° Southwest 432 497 38,000  Level Memphis Center
02:24PM 35.5294 -88.9717 234° Southwest 432 497 38,000  Level Memphis Center
02:25PM 35.4639 -89.0850 235° Southwest 427 491 38,000  Level Memphis Center
02:26PM 35.3983 -89.2006 235° Southwest 427 491 38,000  Level Memphis Center
02:27PM 35.3325 -89.3136 235° Southwest 422 486 38,000  Level Memphis Center
02:28PM 35.2667 -89.4236 234° Southwest 416 479 38,000  Level Memphis Center
02:29PM 35.2008 -89.5389 235° Southwest 416 479 38,000  Level Memphis Center
02:30PM 35.1367 -89.6536 236° Southwest 416 479 38,000  Level Memphis Center
02:31PM 35.0686 -89.7683 234° Southwest 416 479 38,000  Level Memphis Center
02:32PM 35.0044 -89.8806 235° Southwest 416 479 38,000  Level Memphis Center
02:33PM 34.9381 -89.9897 233° Southwest 416 479 38,000  Level Memphis Center
02:34PM 34.8694 -90.1067 234° Southwest 416 479 38,000  Level Memphis Center
02:35PM 34.8008 -90.2181 233° Southwest 416 479 38,000  Level Memphis Center
02:36PM 34.7319 -90.3319 234° Southwest 416 479 38,000  Level Memphis Center
02:37PM 34.6714 -90.4481 238° Southwest 421 484 38,000  Level Memphis Center
02:38PM 34.6108 -90.5489 234° Southwest 421 484 38,000  Level Memphis Center
02:39PM 34.5439 -90.6647 235° Southwest 421 484 38,000  Level Memphis Center
02:40PM 34.4789 -90.7703 233° Southwest 415 478 38,000  Level Memphis Center
02:41PM 34.4117 -90.8808 234° Southwest 410 472 38,000  Level Memphis Center
02:42PM 34.3464 -90.9886 234° Southwest 405 466 38,000  Level Memphis Center
02:43PM 34.2769 -91.1011 233° Southwest 396 456 38,000  Level Memphis Center
02:44PM 34.2136 -91.2086 235° Southwest 396 456 38,000  Level Memphis Center
02:45PM 34.1461 -91.3158 233° Southwest 401 461 38,000  Level Memphis Center
02:46PM 34.0953 -91.4006 234° Southwest 401 461 38,000  Level Memphis Center
02:47PM 34.0192 -91.5225 233° Southwest 409 471 38,000  Level Memphis Center
02:48PM 33.9556 -91.6244 233° Southwest 404 465 38,000  Level Memphis Center
02:49PM 33.8617 -91.7908 236° Southwest 398 458 38,000  Level Fort Worth Center
02:50PM 33.7931 -91.8928 231° Southwest 393 452 38,000  Level Fort Worth Center
02:51PM 33.7308 -91.9967 234° Southwest 393 452 38,000  Level Fort Worth Center
02:52PM 33.6644 -92.0981 232° Southwest 393 452 38,000  Level Fort Worth Center
02:53PM 33.6039 -92.1964 234° Southwest 393 452 38,000  Level Fort Worth Center
02:54PM 33.5431 -92.2947 233° Southwest 384 442 38,000  Level Fort Worth Center
02:55PM 33.4806 -92.3956 233° Southwest 377 434 38,000  Level Fort Worth Center
02:56PM 33.4194 -92.4911 233° Southwest 377 434 38,000  Level Fort Worth Center
02:57PM 33.3567 -92.5889 232° Southwest 372 428 38,000  Level Fort Worth Center
02:58PM 33.2936 -92.6917 234° Southwest 377 434 38,000  Level Fort Worth Center
02:59PM 33.2433 -92.7939 240° Southwest 372 428 38,000  Level Fort Worth Center
03:00PM 33.2036 -92.9075 247° West 372 428 38,000  Level Fort Worth Center
03:01PM 33.1658 -93.0211 248° West 367 422 38,000  Level Fort Worth Center
03:02PM 33.1278 -93.1322 248° West 367 422 38,000  Level Fort Worth Center
03:03PM 33.0881 -93.2531 249° West 367 422 38,000  Level Fort Worth Center
03:04PM 33.0500 -93.3664 248° West 367 422 38,000  Level Fort Worth Center
03:05PM 33.0119 -93.4772 248° West 367 422 38,000  Level Fort Worth Center
03:06PM 32.9758 -93.5900 249° West 367 422 38,000  Level Fort Worth Center
03:07PM 32.9353 -93.7033 247° West 367 422 38,000  Level Fort Worth Center
03:08PM 32.8967 -93.8136 247° West 367 422 38,000  Level Fort Worth Center
03:09PM 32.8583 -93.9289 248° West 372 428 38,000  Level Fort Worth Center
03:10PM 32.8194 -94.0417 248° West 372 428 38,000  Level Fort Worth Center
03:11PM 32.7597 -94.1428 235° Southwest 377 434 38,000  Level Fort Worth Center
03:12PM 32.6608 -94.1981 205° Southwest 372 428 38,000  Level Fort Worth Center
03:13PM 32.5553 -94.2339 196° South 378 435 38,000  Level Fort Worth Center
03:14PM 32.4497 -94.2722 197° South 392 451 38,000  Level Fort Worth Center
03:15PM 32.3442 -94.3078 196° South 397 457 38,000  Level Fort Worth Center
03:16PM 32.2367 -94.3458 197° South 402 463 38,000  Level Fort Worth Center
03:17PM 32.1333 -94.3886 199° South 397 457 38,000  Level Fort Worth Center
03:18PM 32.0297 -94.4239 196° South 397 457 38,000  Level Fort Worth Center
03:19PM 31.9303 -94.4589 197° South 391 450 38,000  Level Fort Worth Center
03:22PM 31.7208 -94.5286 196° South 365 420 38,000  Level Houston Center
03:23PM 31.6239 -94.6069 215° Southwest 355 409 38,000  Level Houston Center
03:24PM 31.5444 -94.6769 217° Southwest 356 410 38,000  Level Houston Center
03:25PM 31.4642 -94.7467 217° Southwest 359 413 38,000  Level Houston Center
03:26PM 31.3844 -94.8175 217° Southwest 364 419 38,000  Level Houston Center
03:27PM 31.3025 -94.8881 216° Southwest 369 425 38,000  Level Houston Center
03:28PM 31.2058 -94.9714 216° Southwest 367 422 38,000  Level Houston Center
03:29PM 31.1258 -95.0392 216° Southwest 361 415 38,000  Level Houston Center
03:30PM 31.0472 -95.1067 216° Southwest 354 407 38,000  Level Houston Center
03:31PM 30.9686 -95.1742 216° Southwest 352 405 38,000  Level Houston Center
03:32PM 30.8906 -95.2417 217° Southwest 350 403 38,000  Level Houston Center
03:33PM 30.7969 -95.3208 216° Southwest 347 399 38,000  Level Houston Center
03:34PM 30.7192 -95.3883 217° Southwest 348 400 38,000 -120 Level Houston Center
03:35PM 30.6386 -95.4547 215° Southwest 351 404 37,800 -780 Descending Houston Center
03:36PM 30.5606 -95.5233 217° Southwest 352 405 36,500 -1,380 Descending Houston Center
03:37PM 30.4772 -95.5956 217° Southwest 366 421 35,000 -1,440 Descending Houston Center
03:38PM 30.3892 -95.6717 217° Southwest 388 447 33,600 -1,500 Descending Houston Center
03:39PM 30.2817 -95.7619 216° Southwest 397 457 31,900 -1,500 Descending Houston Center
03:40PM 30.1897 -95.8394 216° Southwest 406 467 30,500 -960 Descending Houston Center
03:41PM 30.0956 -95.9161 215° Southwest 413 475 30,000 -1,560 Descending Houston Center
03:42PM 30.0275 -96.0342 236° Southwest 411 473 27,300 -2,700 Descending Houston Center
03:43PM 30.0311 -96.1692 272° West 422 486 24,500 -2,700 Descending Houston Center
03:45PM 30.0356 -96.3042 272° West 424 488 21,800 -2,580 Descending Houston Center
03:46PM 30.0383 -96.4353 271° West 415 478 19,200 -1,980 Descending Houston Center
03:47PM 30.0419 -96.5639 272° West 407 468 17,800 -2,160 Descending Houston Center
03:48PM 30.0472 -96.7144 272° West 393 452 14,800 -2,640 Descending Houston Center
03:49PM 30.0489 -96.8361 271° West 384 442 12,400 -1,440 Descending Houston Center
03:50PM 30.0747 -96.9539 284° West 387 445 11,800 -600 Descending Houston Center
03:51PM 30.1089 -97.0672 289° West 378 435 11,200 -1,020 Descending Houston Center
03:52PM 30.1422 -97.1800 289° West 313 360 9,800 -1,500 Descending Houston Center
03:53PM 30.1653 -97.2597 289° West 262 302 8,200 -1,800 Descending Houston Center
03:54PM 30.1653 -97.3425 270° West 261 300 6,200 -1,560 Descending Houston Center
03:55PM 30.1606 -97.4244 266° West 257 296 5,000 -1,080 Descending Houston Center
03:56PM 30.1511 -97.4931 261° West 229 264 4,000 -480 Descending Houston Center
03:57PM 30.0869 -97.5172 198° South 245 282 4,000 -300 Level Houston Center
03:58PM 30.0108 -97.5358 192° South 245 282 3,500 -780 Descending Houston Center
03:59PM 29.9758 -97.5897 233° Southwest 233 268 2,500 -540 Descending Houston Center
04:00PM 29.9903 -97.6372 289° West 177 204 2,500  Level Houston Center
04:01PM 30.0297 -97.6581 335° Northwest 161 185 2,500  Level Houston Center
04:02PM 30.0717 -97.6542 North 152 175 2,500 -240 Level Houston Center
04:03PM 30.1092 -97.6558 358° North 132 152 2,000 -600 Descending Houston Center
04:04PM 30.1425 -97.6553 North 121 139 1,300 -720 Descending Houston Center